createdAt,value
2023-04-24T00:02:02.003Z,16.50
2023-04-24T00:04:29.010Z,16.50
2023-04-24T00:06:58.205Z,16.50
2023-04-24T00:09:25.621Z,16.50
2023-04-24T00:11:53.126Z,16.50
2023-04-24T00:14:20.121Z,16.40
2023-04-24T00:16:47.133Z,16.40
2023-04-24T00:19:14.139Z,16.30
2023-04-24T00:21:42.569Z,16.20
2023-04-24T00:24:12.759Z,16.00
2023-04-24T00:26:39.696Z,15.90
2023-04-24T00:29:06.556Z,15.90
2023-04-24T00:31:35.880Z,15.90
2023-04-24T00:34:04.276Z,15.90
2023-04-24T00:36:31.963Z,15.90
2023-04-24T00:38:59.115Z,15.80
2023-04-24T00:41:26.792Z,15.80
2023-04-24T00:43:54.024Z,15.70
2023-04-24T00:46:21.941Z,15.70
2023-04-24T00:48:48.879Z,15.60
2023-04-24T00:51:15.793Z,15.50
2023-04-24T00:53:42.959Z,15.50
2023-04-24T00:56:10.550Z,15.40
2023-04-24T00:58:37.748Z,15.50
2023-04-24T01:01:08.221Z,15.50
2023-04-24T01:03:38.210Z,15.50
2023-04-24T01:06:06.557Z,15.50
2023-04-24T01:08:35.960Z,15.50
2023-04-24T01:11:06.013Z,15.50
2023-04-24T01:13:34.391Z,15.50
2023-04-24T01:16:02.286Z,15.40
2023-04-24T01:18:29.832Z,15.40
2023-04-24T01:21:03.557Z,15.30
2023-04-24T01:23:30.695Z,15.30
2023-04-24T01:25:57.854Z,15.40
2023-04-24T01:28:24.851Z,15.40
2023-04-24T01:30:51.969Z,15.40
2023-04-24T01:33:19.394Z,15.40
2023-04-24T01:35:46.750Z,15.40
2023-04-24T01:38:13.886Z,15.40
2023-04-24T01:40:41.064Z,15.40
2023-04-24T01:43:08.612Z,15.50
2023-04-24T01:45:35.671Z,15.40
2023-04-24T01:48:02.952Z,15.50
2023-04-24T01:50:29.873Z,15.50
2023-04-24T01:52:56.811Z,15.50
2023-04-24T01:55:23.811Z,15.50
2023-04-24T01:57:53.421Z,15.50
2023-04-24T02:00:20.381Z,15.40
2023-04-24T02:02:48.641Z,15.40
2023-04-24T02:05:16.094Z,15.40
2023-04-24T02:07:43.073Z,15.40
2023-04-24T02:10:11.123Z,15.40
2023-04-24T02:12:38.066Z,15.40
2023-04-24T02:15:06.219Z,15.40
2023-04-24T02:17:33.149Z,15.50
2023-04-24T02:20:00.050Z,15.40
2023-04-24T02:22:27.017Z,15.40
2023-04-24T02:24:53.948Z,15.40
2023-04-24T02:27:20.851Z,15.40
2023-04-24T02:29:47.792Z,15.30
2023-04-24T02:32:16.596Z,15.30
2023-04-24T02:34:43.999Z,15.30
2023-04-24T02:37:10.905Z,15.30
2023-04-24T02:39:37.777Z,15.20
2023-04-24T02:42:05.016Z,15.20
2023-04-24T02:44:31.897Z,15.20
2023-04-24T02:46:58.799Z,15.10
2023-04-24T02:49:25.867Z,15.10
2023-04-24T02:51:52.779Z,15.00
2023-04-24T02:54:19.642Z,14.90
2023-04-24T02:56:46.554Z,14.90
2023-04-24T02:59:14.578Z,14.80
2023-04-24T03:01:41.649Z,14.80
2023-04-24T03:04:08.897Z,14.80
2023-04-24T03:06:36.491Z,14.80
2023-04-24T03:09:04.709Z,14.80
2023-04-24T03:11:31.620Z,14.70
2023-04-24T03:13:58.495Z,14.70
2023-04-24T03:16:25.445Z,14.70
2023-04-24T03:18:53.094Z,14.80
2023-04-24T03:21:22.160Z,14.80
2023-04-24T03:23:49.036Z,14.90
2023-04-24T03:26:15.954Z,14.90
2023-04-24T03:28:43.214Z,14.90
2023-04-24T03:31:10.349Z,14.80
2023-04-24T03:33:37.279Z,14.80
2023-04-24T03:36:05.960Z,14.80
2023-04-24T03:38:32.910Z,14.80
2023-04-24T03:40:59.830Z,14.70
2023-04-24T03:43:28.309Z,14.70
2023-04-24T03:45:55.321Z,14.70
2023-04-24T03:48:22.236Z,14.70
2023-04-24T03:50:49.102Z,14.70
2023-04-24T03:53:16.225Z,14.70
2023-04-24T03:55:43.273Z,14.70
2023-04-24T03:58:10.137Z,14.70
2023-04-24T04:00:38.448Z,14.70
2023-04-24T04:03:05.671Z,14.70
2023-04-24T04:05:32.851Z,14.60
2023-04-24T04:07:59.723Z,14.50
2023-04-24T04:10:28.374Z,14.30
2023-04-24T04:12:55.368Z,14.30
2023-04-24T04:15:22.220Z,14.30
2023-04-24T04:17:49.566Z,14.20
2023-04-24T04:20:16.576Z,14.20
2023-04-24T04:22:44.646Z,14.20
2023-04-24T04:25:12.546Z,14.30
2023-04-24T04:27:39.945Z,14.30
2023-04-24T04:30:07.742Z,14.30
2023-04-24T04:32:35.945Z,14.30
2023-04-24T04:35:06.092Z,14.40
2023-04-24T04:37:34.560Z,14.50
2023-04-24T04:40:02.512Z,14.50
2023-04-24T04:42:29.771Z,14.50
2023-04-24T04:44:58.437Z,14.50
2023-04-24T04:47:25.838Z,14.50
2023-04-24T04:49:52.905Z,14.60
2023-04-24T04:52:20.462Z,14.60
2023-04-24T04:54:47.409Z,14.60
2023-04-24T04:57:14.368Z,14.60
2023-04-24T04:59:42.351Z,14.50
2023-04-24T05:02:10.703Z,14.40
2023-04-24T05:04:37.752Z,14.40
2023-04-24T05:07:04.984Z,14.40
2023-04-24T05:09:31.860Z,14.40
2023-04-24T05:11:58.719Z,14.30
2023-04-24T05:14:25.632Z,14.30
2023-04-24T05:16:52.591Z,14.30
2023-04-24T05:19:19.591Z,14.40
2023-04-24T05:21:46.584Z,14.40
2023-04-24T05:24:13.562Z,14.30
2023-04-24T05:26:40.463Z,14.40
2023-04-24T05:29:07.941Z,14.40
2023-04-24T05:31:35.009Z,14.40
2023-04-24T05:34:02.021Z,14.40
2023-04-24T05:36:29.643Z,14.50
2023-04-24T05:38:56.597Z,14.50
2023-04-24T05:41:23.725Z,14.50
2023-04-24T05:43:50.736Z,14.60
2023-04-24T05:46:17.751Z,14.50
2023-04-24T05:48:44.732Z,14.50
2023-04-24T05:51:11.587Z,14.50
2023-04-24T05:53:38.453Z,14.40
2023-04-24T05:56:05.742Z,14.40
2023-04-24T05:58:32.611Z,14.30
2023-04-24T06:01:01.857Z,14.20
2023-04-24T06:03:28.914Z,14.20
2023-04-24T06:05:56.116Z,14.10
2023-04-24T06:08:22.984Z,14.20
2023-04-24T06:10:49.940Z,14.30
2023-04-24T06:13:17.015Z,14.40
2023-04-24T06:15:44.852Z,14.40
2023-04-24T06:18:11.799Z,14.40
2023-04-24T06:20:38.888Z,14.50
2023-04-24T06:23:05.863Z,14.50
2023-04-24T06:25:33.065Z,14.40
2023-04-24T06:28:00.377Z,14.40
2023-04-24T06:30:28.933Z,14.40
2023-04-24T06:32:58.744Z,14.50
2023-04-24T06:35:30.238Z,14.50
2023-04-24T06:37:57.324Z,14.40
2023-04-24T06:40:24.425Z,14.40
2023-04-24T06:42:51.299Z,14.30
2023-04-24T06:45:18.351Z,14.30
2023-04-24T06:47:45.503Z,14.30
2023-04-24T06:50:12.631Z,14.30
2023-04-24T06:52:39.560Z,14.20
2023-04-24T06:55:07.418Z,14.20
2023-04-24T06:57:34.491Z,14.30
2023-04-24T07:00:01.895Z,14.20
2023-04-24T07:02:28.908Z,14.10
2023-04-24T07:04:55.916Z,14.20
2023-04-24T07:07:25.577Z,14.20
2023-04-24T07:09:52.622Z,14.30
2023-04-24T07:12:21.588Z,14.40
2023-04-24T07:14:49.056Z,14.50
2023-04-24T07:17:15.967Z,14.50
2023-04-24T07:19:43.280Z,14.50
2023-04-24T07:22:12.466Z,14.60
2023-04-24T07:24:39.333Z,14.70
2023-04-24T07:27:06.343Z,14.80
2023-04-24T07:29:33.218Z,14.90
2023-04-24T07:32:02.056Z,15.00
2023-04-24T07:34:30.451Z,15.10
2023-04-24T07:36:57.452Z,15.20
2023-04-24T07:39:24.979Z,15.30
2023-04-24T07:41:51.819Z,15.40
2023-04-24T07:44:18.748Z,15.40
2023-04-24T07:46:48.698Z,15.60
2023-04-24T07:49:18.376Z,15.70
2023-04-24T07:51:47.040Z,15.80
2023-04-24T07:54:14.104Z,15.90
2023-04-24T07:56:43.912Z,16.00
2023-04-24T07:59:12.036Z,16.10
2023-04-24T08:01:39.420Z,16.20
2023-04-24T08:04:06.866Z,16.10
2023-04-24T08:06:34.249Z,16.20
2023-04-24T08:09:01.865Z,16.30
2023-04-24T08:11:29.040Z,16.40
2023-04-24T08:13:56.198Z,16.50
2023-04-24T08:16:25.175Z,16.60
2023-04-24T08:18:52.809Z,16.70
2023-04-24T08:21:20.001Z,16.70
2023-04-24T08:23:47.491Z,16.80
2023-04-24T08:26:15.132Z,16.80
2023-04-24T08:28:42.126Z,16.90
2023-04-24T08:31:09.116Z,17.00
2023-04-24T08:33:36.132Z,17.00
2023-04-24T08:36:07.237Z,17.10
2023-04-24T08:38:35.095Z,17.20
2023-04-24T08:41:02.909Z,17.10
2023-04-24T08:43:29.844Z,17.20
2023-04-24T08:46:00.241Z,17.30
2023-04-24T08:48:31.829Z,17.30
2023-04-24T08:51:00.308Z,17.30
2023-04-24T08:53:27.967Z,17.40
2023-04-24T08:55:57.665Z,17.40
2023-04-24T08:58:27.994Z,17.50
2023-04-24T09:00:59.503Z,17.60
2023-04-24T09:03:29.286Z,17.70
2023-04-24T09:05:58.851Z,17.80
2023-04-24T09:08:27.599Z,17.80
2023-04-24T09:10:54.544Z,17.90
2023-04-24T09:13:21.999Z,17.90
2023-04-24T09:15:48.873Z,18.00
2023-04-24T09:18:15.844Z,18.00
2023-04-24T09:21:09.167Z,18.10
2023-04-24T09:23:36.341Z,18.10
2023-04-24T09:26:07.582Z,18.20
2023-04-24T09:28:40.509Z,18.30
2023-04-24T09:31:19.421Z,18.40
2023-04-24T09:34:05.757Z,18.50
2023-04-24T09:36:40.215Z,18.50
2023-04-24T09:39:11.812Z,18.70
2023-04-24T09:41:52.933Z,18.80
2023-04-24T09:44:24.241Z,19.00
2023-04-24T09:46:57.260Z,19.20
2023-04-24T09:49:28.861Z,19.40
2023-04-24T09:52:11.144Z,19.50
2023-04-24T09:54:39.373Z,19.70
2023-04-24T09:57:09.139Z,19.80
2023-04-24T09:59:37.465Z,19.80
2023-04-24T10:02:21.151Z,19.80
2023-04-24T10:05:00.179Z,19.90
2023-04-24T10:07:28.003Z,19.90
2023-04-24T10:09:56.136Z,19.90
2023-04-24T10:12:24.079Z,20.00
2023-04-24T10:14:52.548Z,20.10
2023-04-24T10:17:21.914Z,20.20
2023-04-24T10:19:49.433Z,20.30
2023-04-24T10:22:18.608Z,20.40
2023-04-24T10:24:49.070Z,20.60
2023-04-24T10:27:17.440Z,20.80
2023-04-24T10:29:48.084Z,20.90
2023-04-24T10:32:14.986Z,21.00
2023-04-24T10:34:43.353Z,20.90
2023-04-24T10:37:11.677Z,20.90
2023-04-24T10:39:41.248Z,20.90
2023-04-24T10:42:29.220Z,20.80
2023-04-24T10:44:57.188Z,20.80
2023-04-24T10:47:24.568Z,20.80
2023-04-24T10:49:52.984Z,20.80
2023-04-24T10:52:21.584Z,20.80
2023-04-24T10:54:50.351Z,20.80
2023-04-24T10:57:23.352Z,20.80
2023-04-24T11:00:10.272Z,20.80
2023-04-24T11:02:41.251Z,20.80
2023-04-24T11:05:08.908Z,20.80
2023-04-24T11:08:14.163Z,20.90
2023-04-24T11:10:47.545Z,21.00
2023-04-24T11:13:22.152Z,21.10
2023-04-24T11:16:25.427Z,21.10
2023-04-24T11:19:09.263Z,21.20
2023-04-24T11:21:49.959Z,21.20
2023-04-24T11:24:40.822Z,21.10
2023-04-24T11:27:18.969Z,21.10
2023-04-24T11:29:58.417Z,21.20
2023-04-24T11:32:28.772Z,21.10
2023-04-24T11:35:01.560Z,21.20
2023-04-24T11:37:34.243Z,21.10
2023-04-24T11:40:02.361Z,21.00
2023-04-24T11:42:34.260Z,21.00
2023-04-24T11:45:02.948Z,21.00
2023-04-24T11:47:34.454Z,20.90
2023-04-24T11:50:02.839Z,21.00
2023-04-24T11:52:31.860Z,20.90
2023-04-24T11:54:59.273Z,21.00
2023-04-24T11:57:29.876Z,21.00
2023-04-24T11:59:56.927Z,21.00
2023-04-24T12:02:26.395Z,21.00
2023-04-24T12:04:55.205Z,20.90
2023-04-24T12:07:24.088Z,21.00
2023-04-24T12:09:59.416Z,21.00
2023-04-24T12:12:29.035Z,21.00
2023-04-24T12:14:59.204Z,21.00
2023-04-24T12:17:32.522Z,21.00
2023-04-24T12:20:03.538Z,21.00
2023-04-24T12:22:48.568Z,21.00
2023-04-24T12:25:18.692Z,21.00
2023-04-24T12:27:47.358Z,21.10
2023-04-24T12:30:17.246Z,21.10
2023-04-24T12:32:50.477Z,21.10
2023-04-24T12:35:24.520Z,21.20
2023-04-24T12:37:51.496Z,21.20
2023-04-24T12:40:20.970Z,21.20
2023-04-24T12:42:50.645Z,21.20
2023-04-24T12:45:20.646Z,21.30
2023-04-24T12:47:49.500Z,21.40
2023-04-24T12:50:17.415Z,21.40
2023-04-24T12:52:45.645Z,21.50
2023-04-24T12:55:13.314Z,21.60
2023-04-24T12:57:41.236Z,21.60
2023-04-24T13:00:10.686Z,21.70
2023-04-24T13:02:40.901Z,21.90
2023-04-24T13:05:08.586Z,21.80
2023-04-24T13:07:36.365Z,21.80
2023-04-24T13:10:03.388Z,21.80
2023-04-24T13:12:30.557Z,21.90
2023-04-24T13:14:59.664Z,21.90
2023-04-24T13:17:26.638Z,21.90
2023-04-24T13:19:56.407Z,22.00
2023-04-24T13:22:23.515Z,22.00
2023-04-24T13:24:50.813Z,22.00
2023-04-24T13:27:18.683Z,22.10
2023-04-24T13:29:47.591Z,22.20
2023-04-24T13:32:15.117Z,22.30
2023-04-24T13:34:42.338Z,22.30
2023-04-24T13:37:09.454Z,22.40
2023-04-24T13:39:36.666Z,22.50
2023-04-24T13:42:05.288Z,22.40
2023-04-24T13:44:34.505Z,22.40
2023-04-24T13:47:01.677Z,22.30
2023-04-24T13:49:29.295Z,22.40
2023-04-24T13:51:57.689Z,22.40
2023-04-24T13:54:26.767Z,22.50
2023-04-24T13:56:56.876Z,22.50
2023-04-24T13:59:23.843Z,22.40
2023-04-24T14:01:53.200Z,22.40
2023-04-24T14:04:20.713Z,22.30
2023-04-24T14:06:47.821Z,22.20
2023-04-24T14:09:14.811Z,22.10
2023-04-24T14:11:41.965Z,22.00
2023-04-24T14:14:09.824Z,21.90
2023-04-24T14:16:37.294Z,21.80
2023-04-24T14:19:04.351Z,21.60
2023-04-24T14:21:31.484Z,21.50
2023-04-24T14:23:58.650Z,21.30
2023-04-24T14:26:28.738Z,21.20
2023-04-24T14:29:07.178Z,21.10
2023-04-24T14:31:38.467Z,21.10
2023-04-24T14:34:05.605Z,21.00
2023-04-24T14:36:35.364Z,21.00
2023-04-24T14:39:07.161Z,20.90
2023-04-24T14:41:38.229Z,20.80
2023-04-24T14:44:05.938Z,20.90
2023-04-24T14:46:33.345Z,21.00
2023-04-24T14:49:00.508Z,21.10
2023-04-24T14:51:27.904Z,21.30
2023-04-24T14:53:54.906Z,21.30
2023-04-24T14:56:21.903Z,21.40
2023-04-24T14:58:48.784Z,21.50
2023-04-24T15:01:17.371Z,21.60
2023-04-24T15:03:45.452Z,21.80
2023-04-24T15:06:12.940Z,21.90
2023-04-24T15:08:39.849Z,22.00
2023-04-24T15:11:08.387Z,22.10
2023-04-24T15:13:35.385Z,22.10
2023-04-24T15:16:03.224Z,22.10
2023-04-24T15:18:30.465Z,22.00
2023-04-24T15:20:57.897Z,21.90
2023-04-24T15:23:24.962Z,21.80
2023-04-24T15:25:52.008Z,21.70
2023-04-24T15:28:18.981Z,21.50
2023-04-24T15:30:46.195Z,21.50
2023-04-24T15:33:13.478Z,21.40
2023-04-24T15:35:41.698Z,21.30
2023-04-24T15:38:09.088Z,21.20
2023-04-24T15:40:36.646Z,21.20
2023-04-24T15:43:03.935Z,21.10
2023-04-24T15:45:31.330Z,21.20
2023-04-24T15:47:58.533Z,21.20
2023-04-24T15:50:27.110Z,21.20
2023-04-24T15:52:54.087Z,21.20
2023-04-24T15:55:21.169Z,21.30
2023-04-24T15:57:48.112Z,21.30
2023-04-24T16:00:16.136Z,21.50
2023-04-24T16:02:44.416Z,21.60
2023-04-24T16:05:11.788Z,21.60
2023-04-24T16:07:40.251Z,21.50
2023-04-24T16:10:08.030Z,21.40
2023-04-24T16:12:35.018Z,21.20
2023-04-24T16:15:02.060Z,21.20
2023-04-24T16:17:29.049Z,21.20
2023-04-24T16:19:56.022Z,21.20
2023-04-24T16:22:23.018Z,21.00
2023-04-24T16:24:49.941Z,20.80
2023-04-24T16:27:16.898Z,20.80
2023-04-24T16:29:44.074Z,20.80
2023-04-24T16:32:11.200Z,20.70
2023-04-24T16:34:38.238Z,20.60
2023-04-24T16:37:06.577Z,20.60
2023-04-24T16:39:34.350Z,20.40
2023-04-24T16:42:01.994Z,20.40
2023-04-24T16:44:29.077Z,20.30
2023-04-24T16:46:56.886Z,20.30
2023-04-24T16:49:24.294Z,20.20
2023-04-24T16:52:00.502Z,20.20
2023-04-24T16:54:27.806Z,20.20
2023-04-24T16:56:55.424Z,20.20
2023-04-24T16:59:24.497Z,20.10
2023-04-24T17:01:51.561Z,20.00
2023-04-24T17:04:18.576Z,19.60
2023-04-24T17:06:46.694Z,19.30
2023-04-24T17:09:15.742Z,19.10
2023-04-24T17:11:42.885Z,18.90
2023-04-24T17:14:10.222Z,18.70
2023-04-24T17:16:38.575Z,18.50
2023-04-24T17:19:06.191Z,18.50
2023-04-24T17:21:33.539Z,18.40
2023-04-24T17:24:00.721Z,18.40
2023-04-24T17:26:29.120Z,18.30
2023-04-24T17:28:56.450Z,18.30
2023-04-24T17:31:26.090Z,18.20
2023-04-24T17:33:53.295Z,18.20
2023-04-24T17:36:21.798Z,18.20
2023-04-24T17:38:50.296Z,18.20
2023-04-24T17:41:20.389Z,18.10
2023-04-24T17:43:50.460Z,18.20
2023-04-24T17:46:18.020Z,18.30
2023-04-24T17:48:47.017Z,18.30
2023-04-24T17:51:19.041Z,18.20
2023-04-24T17:53:46.516Z,18.20
2023-04-24T17:56:15.522Z,18.10
2023-04-24T17:58:44.020Z,18.10
2023-04-24T18:01:11.596Z,18.00
2023-04-24T18:03:39.866Z,17.80
2023-04-24T18:06:10.237Z,17.90
2023-04-24T18:08:38.071Z,17.80
2023-04-24T18:11:07.467Z,17.70
2023-04-24T18:13:34.709Z,17.60
2023-04-24T18:16:02.050Z,17.50
2023-04-24T18:18:31.953Z,17.40
2023-04-24T18:21:00.274Z,17.40
2023-04-24T18:23:27.764Z,17.30
2023-04-24T18:25:56.089Z,17.20
2023-04-24T18:28:23.371Z,17.20
2023-04-24T18:30:53.030Z,17.10
2023-04-24T18:33:21.532Z,17.10
2023-04-24T18:35:52.381Z,17.00
2023-04-24T18:38:20.535Z,16.90
2023-04-24T18:40:49.107Z,16.90
2023-04-24T18:43:17.223Z,16.90
2023-04-24T18:45:46.663Z,16.90
2023-04-24T18:48:14.437Z,16.80
2023-04-24T18:50:41.832Z,16.70
2023-04-24T18:53:10.029Z,16.70
2023-04-24T18:55:38.540Z,16.60
2023-04-24T18:58:07.171Z,16.20
2023-04-24T19:00:40.286Z,15.40
2023-04-24T19:03:09.200Z,14.90
2023-04-24T19:05:38.050Z,14.50
2023-04-24T19:08:09.730Z,14.10
2023-04-24T19:10:37.222Z,13.90
2023-04-24T19:13:06.407Z,13.40
2023-04-24T19:15:37.788Z,13.20
2023-04-24T19:18:11.180Z,13.20
2023-04-24T19:20:38.704Z,13.30
2023-04-24T19:23:07.411Z,13.20
2023-04-24T19:25:35.819Z,13.30
2023-04-24T19:28:03.461Z,13.50
2023-04-24T19:30:30.836Z,13.70
2023-04-24T19:33:02.410Z,13.80
2023-04-24T19:35:29.964Z,13.90
2023-04-24T19:37:57.793Z,13.90
2023-04-24T19:40:35.310Z,14.00
2023-04-24T19:43:14.824Z,14.00
2023-04-24T19:45:43.546Z,14.10
2023-04-24T19:48:11.217Z,14.20
2023-04-24T19:50:39.587Z,14.30
2023-04-24T19:53:07.281Z,14.30
2023-04-24T19:55:34.642Z,14.30
2023-04-24T19:58:04.908Z,14.30
2023-04-24T20:00:36.310Z,14.30
2023-04-24T20:03:04.834Z,14.30
2023-04-24T20:05:32.288Z,14.40
2023-04-24T20:08:01.086Z,14.40
2023-04-24T20:10:28.917Z,14.40
2023-04-24T20:12:58.019Z,14.50
2023-04-24T20:18:13.390Z,14.60
2023-04-24T20:20:42.804Z,14.70
2023-04-24T20:23:14.837Z,14.70
2023-04-24T20:25:44.407Z,14.70
2023-04-24T20:28:12.168Z,14.70
2023-04-24T20:30:43.233Z,14.70
2023-04-24T20:33:11.850Z,14.80
2023-04-24T20:35:40.351Z,14.80
2023-04-24T20:38:11.513Z,14.90
2023-04-24T20:40:53.777Z,14.90
2023-04-24T20:43:28.017Z,14.90
2023-04-24T20:45:58.258Z,14.80
2023-04-24T20:48:26.857Z,14.80
2023-04-24T20:50:54.735Z,14.90
2023-04-24T20:53:22.357Z,14.90
2023-04-24T20:55:51.202Z,15.00
2023-04-24T20:58:21.143Z,15.00
2023-04-24T21:00:48.792Z,15.00
2023-04-24T21:03:17.384Z,15.10
2023-04-24T21:05:44.696Z,15.10
2023-04-24T21:08:12.877Z,15.10
2023-04-24T21:10:39.789Z,15.10
2023-04-24T21:13:06.830Z,15.10
2023-04-24T21:15:35.379Z,15.20
2023-04-24T21:18:11.842Z,15.10
2023-04-24T21:20:39.150Z,15.20
2023-04-24T21:23:06.371Z,15.10
2023-04-24T21:25:34.894Z,15.10
2023-04-24T21:28:03.595Z,15.10
2023-04-24T21:30:31.380Z,15.00
2023-04-24T21:32:58.614Z,14.90
2023-04-24T21:35:25.747Z,14.90
2023-04-24T21:37:52.902Z,15.00
2023-04-24T21:40:20.216Z,14.90
2023-04-24T21:42:47.186Z,14.80
2023-04-24T21:45:14.314Z,14.70
2023-04-24T21:47:41.235Z,14.70
2023-04-24T21:50:09.338Z,14.70
2023-04-24T21:52:36.282Z,14.60
2023-04-24T21:55:03.613Z,14.70
2023-04-24T21:57:30.968Z,14.60
2023-04-24T21:59:57.977Z,14.60
2023-04-24T22:02:24.953Z,14.30
2023-04-24T22:04:52.868Z,14.20
2023-04-24T22:07:19.989Z,14.00
2023-04-24T22:09:46.847Z,14.00
2023-04-24T22:12:13.753Z,13.80
2023-04-24T22:14:40.622Z,13.60
2023-04-24T22:17:09.531Z,13.40
2023-04-24T22:19:36.414Z,13.30
2023-04-24T22:22:03.877Z,13.30
2023-04-24T22:24:30.850Z,13.20
2023-04-24T22:26:57.729Z,13.20
2023-04-24T22:29:24.630Z,13.10
2023-04-24T22:31:51.761Z,13.10
2023-04-24T22:34:19.700Z,13.10
2023-04-24T22:36:46.555Z,13.10
2023-04-24T22:39:15.859Z,13.00
2023-04-24T22:41:43.367Z,12.90
2023-04-24T22:44:11.407Z,12.90
2023-04-24T22:46:38.351Z,12.90
2023-04-24T22:49:05.345Z,12.90
2023-04-24T22:51:33.473Z,13.00
2023-04-24T22:54:05.255Z,13.00
2023-04-24T22:56:33.602Z,13.00
2023-04-24T22:59:00.908Z,13.00
2023-04-24T23:01:27.876Z,13.00
2023-04-24T23:03:55.135Z,13.00
2023-04-24T23:06:22.335Z,13.00
2023-04-24T23:08:49.425Z,13.00
2023-04-24T23:11:16.362Z,12.90
2023-04-24T23:13:44.411Z,12.90
2023-04-24T23:16:11.369Z,12.90
2023-04-24T23:18:38.302Z,12.80
2023-04-24T23:21:05.575Z,12.80
2023-04-24T23:23:32.806Z,12.90
2023-04-24T23:25:59.888Z,12.80
2023-04-24T23:28:26.997Z,12.90
2023-04-24T23:30:53.902Z,12.90
2023-04-24T23:33:20.805Z,12.90
2023-04-24T23:35:47.900Z,12.90
2023-04-24T23:38:14.728Z,12.80
2023-04-24T23:40:41.764Z,12.90
2023-04-24T23:43:08.962Z,12.90
2023-04-24T23:45:36.029Z,12.90
2023-04-24T23:48:04.544Z,12.90
2023-04-24T23:50:31.650Z,12.90
2023-04-24T23:52:59.140Z,13.00
2023-04-24T23:55:26.094Z,13.00
2023-04-24T23:57:53.002Z,13.00
